createdAt,value
2022-11-24T00:00:52.111Z,85.57
2022-11-24T00:03:19.688Z,85.87
2022-11-24T00:05:46.999Z,85.54
2022-11-24T00:08:13.946Z,85.72
2022-11-24T00:10:42.650Z,85.76
2022-11-24T00:13:09.646Z,85.40
2022-11-24T00:15:36.623Z,85.41
2022-11-24T00:18:03.890Z,85.73
2022-11-24T00:20:30.941Z,85.63
2022-11-24T00:22:58.082Z,85.46
2022-11-24T00:25:25.138Z,85.59
2022-11-24T00:28:00.012Z,85.09
2022-11-24T00:30:27.256Z,86.07
2022-11-24T00:32:54.323Z,86.33
2022-11-24T00:35:21.245Z,86.18
2022-11-24T00:37:48.361Z,85.93
2022-11-24T00:40:16.172Z,86.06
2022-11-24T00:42:43.103Z,85.69
2022-11-24T00:45:14.203Z,85.79
2022-11-24T00:47:41.616Z,86.12
2022-11-24T00:50:10.007Z,86.03
2022-11-24T00:52:37.318Z,85.87
2022-11-24T00:55:05.270Z,86.08
2022-11-24T00:57:35.200Z,85.92
2022-11-24T01:00:02.445Z,85.08
2022-11-24T01:02:30.872Z,84.96
2022-11-24T01:04:58.010Z,85.09
2022-11-24T01:07:25.063Z,84.39
2022-11-24T01:09:52.148Z,84.07
2022-11-24T01:12:19.239Z,83.65
2022-11-24T01:14:46.202Z,82.87
2022-11-24T01:17:13.161Z,82.90
2022-11-24T01:19:41.743Z,82.54
2022-11-24T01:22:08.937Z,82.68
2022-11-24T01:24:36.028Z,82.54
2022-11-24T01:27:03.226Z,82.16
2022-11-24T01:29:30.774Z,82.57
2022-11-24T01:31:57.682Z,81.85
2022-11-24T01:34:24.926Z,81.95
2022-11-24T01:36:53.283Z,82.18
2022-11-24T01:39:20.246Z,82.26
2022-11-24T01:41:47.445Z,81.87
2022-11-24T01:44:24.605Z,82.06
2022-11-24T01:46:58.880Z,82.57
2022-11-24T01:49:35.702Z,82.88
2022-11-24T01:52:13.996Z,82.65
2022-11-24T01:54:46.881Z,82.88
2022-11-24T01:57:22.931Z,82.90
2022-11-24T01:59:54.928Z,83.21
2022-11-24T02:02:29.396Z,82.42
2022-11-24T02:05:03.029Z,82.69
2022-11-24T02:07:33.157Z,83.58
2022-11-24T02:10:07.044Z,83.82
2022-11-24T02:12:37.585Z,83.64
2022-11-24T02:15:06.298Z,83.39
2022-11-24T02:17:33.279Z,83.16
2022-11-24T02:20:04.721Z,83.40
2022-11-24T02:22:47.854Z,84.20
2022-11-24T02:25:29.303Z,84.42
2022-11-24T02:28:02.076Z,83.87
2022-11-24T02:30:29.166Z,84.43
2022-11-24T02:32:56.433Z,84.55
2022-11-24T02:35:23.611Z,84.74
2022-11-24T02:37:50.481Z,85.09
2022-11-24T02:40:22.732Z,84.89
2022-11-24T02:42:49.696Z,85.24
2022-11-24T02:45:18.533Z,85.45
2022-11-24T02:47:45.781Z,85.43
2022-11-24T02:50:13.270Z,85.99
2022-11-24T02:52:40.253Z,85.64
2022-11-24T02:55:08.561Z,86.20
2022-11-24T02:57:35.527Z,85.97
2022-11-24T03:00:02.786Z,86.02
2022-11-24T03:02:32.077Z,85.71
2022-11-24T03:04:59.097Z,85.72
2022-11-24T03:07:26.498Z,86.10
2022-11-24T03:09:53.487Z,86.59
2022-11-24T03:12:20.499Z,86.81
2022-11-24T03:14:47.373Z,86.84
2022-11-24T03:17:14.653Z,86.47
2022-11-24T03:19:42.943Z,86.86
2022-11-24T03:22:11.593Z,87.26
2022-11-24T03:24:38.805Z,86.36
2022-11-24T03:27:06.095Z,86.26
2022-11-24T03:29:33.139Z,85.86
2022-11-24T03:32:00.052Z,85.98
2022-11-24T03:34:27.191Z,85.45
2022-11-24T03:36:55.451Z,85.71
2022-11-24T03:39:22.476Z,86.17
2022-11-24T03:41:49.558Z,85.72
2022-11-24T03:44:16.965Z,84.34
2022-11-24T03:46:43.993Z,85.20
2022-11-24T03:49:11.242Z,85.57
2022-11-24T03:51:38.189Z,85.34
2022-11-24T03:54:07.328Z,84.91
2022-11-24T03:56:34.994Z,85.23
2022-11-24T03:59:02.332Z,84.89
2022-11-24T04:01:29.331Z,84.44
2022-11-24T04:03:56.629Z,84.77
2022-11-24T04:06:23.516Z,84.41
2022-11-24T04:08:50.450Z,85.28
2022-11-24T04:11:18.786Z,85.03
2022-11-24T04:13:47.743Z,84.87
2022-11-24T04:16:14.691Z,83.89
2022-11-24T04:18:41.555Z,84.00
2022-11-24T04:21:08.404Z,84.22
2022-11-24T04:23:35.183Z,83.58
2022-11-24T04:26:02.175Z,83.58
2022-11-24T04:28:30.329Z,83.86
2022-11-24T04:31:02.321Z,83.89
2022-11-24T04:33:29.275Z,83.58
2022-11-24T04:35:56.167Z,84.36
2022-11-24T04:39:25.614Z,84.11
2022-11-24T04:41:10.451Z,83.50
2022-11-24T04:43:40.779Z,84.18
2022-11-24T04:46:11.223Z,83.68
2022-11-24T04:48:38.478Z,84.39
2022-11-24T04:51:06.159Z,83.94
2022-11-24T04:53:33.095Z,84.20
2022-11-24T04:56:03.868Z,84.29
2022-11-24T04:58:31.093Z,84.59
2022-11-24T05:00:59.272Z,84.15
2022-11-24T05:03:26.462Z,84.76
2022-11-24T05:05:53.236Z,85.01
2022-11-24T05:08:20.020Z,85.35
2022-11-24T05:10:47.061Z,85.54
2022-11-24T05:13:13.962Z,85.33
2022-11-24T05:15:42.378Z,85.67
2022-11-24T05:18:14.607Z,85.29
2022-11-24T05:20:41.861Z,85.14
2022-11-24T05:23:08.818Z,85.02
2022-11-24T05:25:36.223Z,85.87
2022-11-24T05:28:06.060Z,85.09
2022-11-24T05:30:32.969Z,84.79
2022-11-24T05:33:05.705Z,84.92
2022-11-24T05:35:35.602Z,83.61
2022-11-24T05:38:03.848Z,84.33
2022-11-24T05:40:30.972Z,83.61
2022-11-24T05:42:57.938Z,84.01
2022-11-24T05:45:24.774Z,83.45
2022-11-24T05:47:51.677Z,83.42
2022-11-24T05:50:21.863Z,82.69
2022-11-24T05:52:50.384Z,82.57
2022-11-24T05:55:17.475Z,82.85
2022-11-24T05:57:44.706Z,83.30
2022-11-24T06:00:14.094Z,83.60
2022-11-24T06:02:41.449Z,83.88
2022-11-24T06:05:09.376Z,83.82
2022-11-24T06:07:36.239Z,84.48
2022-11-24T06:10:05.551Z,84.13
2022-11-24T06:12:32.557Z,85.21
2022-11-24T06:14:59.371Z,85.43
2022-11-24T06:17:26.332Z,84.75
2022-11-24T06:19:53.505Z,85.06
2022-11-24T06:22:20.526Z,84.70
2022-11-24T06:24:47.342Z,84.82
2022-11-24T06:27:15.962Z,85.90
2022-11-24T06:29:42.972Z,87.05
2022-11-24T06:32:10.150Z,89.87
2022-11-24T06:34:37.258Z,89.65
2022-11-24T06:37:04.399Z,91.09
2022-11-24T06:39:31.251Z,91.47
2022-11-24T06:41:58.372Z,92.26
2022-11-24T06:44:26.576Z,91.52
2022-11-24T06:46:54.243Z,90.86
2022-11-24T06:49:21.086Z,90.68
2022-11-24T06:51:48.322Z,90.63
2022-11-24T06:54:19.141Z,92.34
2022-11-24T06:56:46.044Z,92.75
2022-11-24T06:59:19.014Z,92.68
2022-11-24T07:01:47.721Z,93.19
2022-11-24T07:04:15.456Z,93.55
2022-11-24T07:06:43.343Z,94.00
2022-11-24T07:09:27.418Z,92.89
2022-11-24T07:12:03.154Z,92.76
2022-11-24T07:14:58.172Z,92.88
2022-11-24T07:18:03.782Z,92.54
2022-11-24T07:20:34.475Z,93.75
2022-11-24T07:23:01.298Z,92.83
2022-11-24T07:25:28.421Z,93.58
2022-11-24T07:27:56.873Z,93.99
2022-11-24T07:30:23.787Z,94.27
2022-11-24T07:32:58.912Z,93.35
2022-11-24T07:35:25.974Z,94.18
2022-11-24T07:37:55.138Z,93.56
2022-11-24T07:40:22.503Z,92.67
2022-11-24T07:42:49.313Z,91.94
2022-11-24T07:45:16.828Z,92.82
2022-11-24T07:47:43.930Z,92.62
2022-11-24T07:50:12.735Z,92.24
2022-11-24T07:52:40.109Z,91.96
2022-11-24T07:55:08.443Z,91.88
2022-11-24T07:57:35.617Z,92.34
2022-11-24T08:00:05.012Z,93.16
2022-11-24T08:02:31.973Z,92.04
2022-11-24T08:04:58.820Z,92.07
2022-11-24T08:07:27.091Z,92.36
2022-11-24T08:09:53.930Z,92.47
2022-11-24T08:12:21.145Z,92.30
2022-11-24T08:14:49.489Z,92.51
2022-11-24T08:17:17.077Z,92.07
2022-11-24T08:19:44.378Z,91.55
2022-11-24T08:22:11.607Z,90.84
2022-11-24T08:24:39.828Z,91.26
2022-11-24T08:27:06.812Z,90.97
2022-11-24T08:29:33.589Z,91.12
2022-11-24T08:32:00.830Z,89.36
2022-11-24T08:34:27.737Z,89.90
2022-11-24T08:36:54.677Z,89.45
2022-11-24T08:43:23.876Z,86.64
2022-11-24T08:45:51.186Z,87.15
2022-11-24T08:48:19.611Z,86.34
2022-11-24T08:50:46.701Z,86.07
2022-11-24T08:53:23.663Z,85.46
2022-11-24T08:55:52.380Z,85.18
2022-11-24T08:58:19.179Z,83.71
2022-11-24T09:00:46.025Z,85.67
2022-11-24T09:03:14.348Z,83.27
2022-11-24T09:05:51.620Z,80.09
2022-11-24T09:08:19.418Z,77.73
2022-11-24T09:10:59.392Z,79.42
2022-11-24T09:13:26.675Z,76.50
2022-11-24T09:15:54.226Z,78.80
2022-11-24T09:18:25.189Z,77.55
2022-11-24T09:21:06.317Z,77.47
2022-11-24T09:23:33.543Z,77.18
2022-11-24T09:26:05.694Z,79.33
2022-11-24T09:28:35.785Z,80.26
2022-11-24T09:31:04.243Z,79.85
2022-11-24T09:33:31.703Z,80.04
2022-11-24T09:35:59.779Z,79.64
2022-11-24T09:38:27.378Z,80.56
2022-11-24T09:40:56.336Z,81.27
2022-11-24T09:43:38.986Z,80.87
2022-11-24T09:46:13.786Z,80.99
2022-11-24T09:48:46.911Z,81.04
2022-11-24T09:51:15.605Z,80.88
2022-11-24T09:53:51.628Z,80.96
2022-11-24T09:56:23.210Z,81.90
2022-11-24T09:58:57.191Z,81.53
2022-11-24T10:01:30.410Z,81.47
2022-11-24T10:04:04.278Z,81.14
2022-11-24T10:06:45.334Z,81.73
2022-11-24T10:09:39.944Z,82.46
2022-11-24T10:12:33.487Z,81.42
2022-11-24T10:15:34.492Z,82.29
2022-11-24T10:18:46.702Z,82.15
2022-11-24T10:21:47.816Z,80.89
2022-11-24T10:24:48.347Z,80.23
2022-11-24T10:27:18.532Z,80.44
2022-11-24T10:29:51.571Z,81.18
2022-11-24T10:32:26.513Z,79.44
2022-11-24T10:35:00.541Z,80.14
2022-11-24T10:37:37.000Z,80.34
2022-11-24T10:40:40.599Z,77.84
2022-11-24T10:43:03.703Z,76.71
2022-11-24T10:45:31.795Z,73.96
2022-11-24T10:48:00.035Z,70.45
2022-11-24T10:50:32.299Z,67.07
2022-11-24T10:53:14.700Z,62.70
2022-11-24T10:56:03.110Z,59.36
2022-11-24T10:58:37.418Z,59.05
2022-11-24T11:01:33.244Z,57.23
2022-11-24T11:04:01.868Z,53.36
2022-11-24T11:06:31.137Z,50.43
2022-11-24T11:09:18.940Z,57.45
2022-11-24T11:11:47.197Z,60.81
2022-11-24T11:14:30.490Z,62.25
2022-11-24T11:16:58.700Z,63.54
2022-11-24T11:19:56.977Z,64.21
2022-11-24T11:22:28.679Z,65.22
2022-11-24T11:25:20.297Z,66.94
2022-11-24T11:27:47.639Z,67.32
2022-11-24T11:36:15.733Z,69.40
2022-11-24T11:38:45.168Z,69.16
2022-11-24T11:41:21.722Z,66.27
2022-11-24T11:44:02.430Z,59.08
2022-11-24T11:46:32.758Z,57.18
2022-11-24T11:49:00.409Z,53.52
2022-11-24T11:51:48.709Z,53.33
2022-11-24T11:54:31.129Z,55.01
2022-11-24T11:57:10.214Z,58.65
2022-11-24T12:00:02.151Z,60.46
2022-11-24T12:03:24.146Z,64.26
2022-11-24T12:06:08.630Z,63.80
2022-11-24T12:09:19.443Z,57.97
2022-11-24T12:11:59.951Z,54.88
2022-11-24T12:14:43.025Z,51.94
2022-11-24T12:17:28.690Z,49.75
2022-11-24T12:20:27.427Z,47.80
2022-11-24T12:23:09.339Z,46.70
2022-11-24T12:25:46.713Z,47.71
2022-11-24T12:28:35.075Z,48.60
2022-11-24T12:31:06.625Z,49.88
2022-11-24T12:34:05.312Z,49.85
2022-11-24T12:37:02.715Z,50.43
2022-11-24T12:39:39.326Z,52.26
2022-11-24T12:42:25.438Z,56.96
2022-11-24T12:45:16.854Z,59.78
2022-11-24T12:48:12.078Z,61.13
2022-11-24T12:50:43.701Z,62.17
2022-11-24T12:53:17.527Z,62.87
2022-11-24T12:55:45.683Z,62.82
2022-11-24T12:58:23.450Z,63.65
2022-11-24T13:01:14.636Z,65.02
2022-11-24T13:04:00.838Z,65.65
2022-11-24T13:06:38.519Z,65.91
2022-11-24T13:09:09.640Z,66.71
2022-11-24T13:11:41.913Z,66.25
2022-11-24T13:14:18.354Z,66.36
2022-11-24T13:17:29.559Z,65.99
2022-11-24T13:19:46.238Z,66.23
2022-11-24T13:22:23.019Z,65.26
2022-11-24T13:25:16.328Z,65.80
2022-11-24T13:27:46.762Z,66.12
2022-11-24T13:30:59.137Z,64.79
2022-11-24T13:33:36.494Z,63.95
2022-11-24T13:36:33.027Z,64.30
2022-11-24T13:39:02.161Z,63.11
2022-11-24T13:42:08.968Z,63.08
2022-11-24T13:44:54.223Z,62.52
2022-11-24T13:47:41.359Z,62.28
2022-11-24T13:50:21.822Z,60.15
2022-11-24T13:52:55.650Z,58.61
2022-11-24T13:55:29.684Z,57.89
2022-11-24T13:58:22.368Z,58.46
2022-11-24T14:01:15.215Z,57.97
2022-11-24T14:04:43.236Z,58.19
2022-11-24T14:07:15.387Z,57.80
2022-11-24T14:09:46.983Z,56.72
2022-11-24T14:12:17.240Z,56.41
2022-11-24T14:14:47.093Z,55.59
2022-11-24T14:17:19.156Z,56.21
2022-11-24T14:19:49.104Z,56.91
2022-11-24T14:22:21.671Z,58.39
2022-11-24T14:24:55.551Z,60.93
2022-11-24T14:27:30.208Z,61.44
2022-11-24T14:30:00.140Z,62.08
2022-11-24T14:32:27.317Z,62.81
2022-11-24T14:34:54.297Z,63.30
2022-11-24T14:37:22.926Z,63.39
2022-11-24T14:39:49.784Z,64.02
2022-11-24T14:42:20.603Z,64.71
2022-11-24T14:44:53.323Z,64.53
2022-11-24T14:47:31.297Z,65.13
2022-11-24T14:50:11.614Z,65.60
2022-11-24T14:52:48.357Z,65.97
2022-11-24T14:55:28.044Z,66.09
2022-11-24T14:57:56.606Z,66.16
2022-11-24T15:00:29.129Z,66.44
2022-11-24T15:03:15.382Z,67.26
2022-11-24T15:06:00.687Z,67.14
2022-11-24T15:08:42.410Z,67.44
2022-11-24T15:11:09.375Z,67.95
2022-11-24T15:13:38.777Z,67.86
2022-11-24T15:16:16.138Z,68.13
2022-11-24T15:18:46.843Z,68.80
2022-11-24T15:21:19.346Z,68.86
2022-11-24T15:24:14.816Z,68.44
2022-11-24T15:26:42.439Z,69.00
2022-11-24T15:29:10.288Z,68.08
2022-11-24T15:31:37.373Z,69.17
2022-11-24T15:34:04.536Z,69.19
2022-11-24T15:36:31.558Z,69.93
2022-11-24T15:38:58.912Z,69.12
2022-11-24T15:41:30.902Z,69.82
2022-11-24T15:43:58.382Z,70.29
2022-11-24T15:46:26.311Z,71.42
2022-11-24T15:48:54.424Z,71.38
2022-11-24T15:51:25.038Z,71.91
2022-11-24T15:54:00.061Z,72.77
2022-11-24T15:56:33.556Z,73.10
2022-11-24T15:59:00.925Z,72.94
2022-11-24T16:01:32.463Z,74.05
2022-11-24T16:03:59.660Z,74.25
2022-11-24T16:06:26.969Z,73.69
2022-11-24T16:08:54.873Z,73.98
2022-11-24T16:11:22.156Z,74.69
2022-11-24T16:13:53.417Z,76.95
2022-11-24T16:16:23.802Z,76.95
2022-11-24T16:18:50.789Z,77.09
2022-11-24T16:21:17.658Z,76.98
2022-11-24T16:23:44.714Z,77.41
2022-11-24T16:26:11.585Z,77.78
2022-11-24T16:28:38.392Z,77.68
2022-11-24T16:31:06.671Z,79.40
2022-11-24T16:33:33.659Z,80.25
2022-11-24T16:36:00.762Z,79.98
2022-11-24T16:38:27.584Z,80.80
2022-11-24T16:40:55.674Z,80.79
2022-11-24T16:43:22.940Z,80.34
2022-11-24T16:46:10.965Z,82.09
2022-11-24T16:48:39.283Z,83.19
2022-11-24T16:51:07.551Z,83.43
2022-11-24T16:53:34.634Z,83.59
2022-11-24T16:56:01.855Z,82.14
2022-11-24T16:58:29.146Z,82.18
2022-11-24T17:01:03.233Z,82.78
2022-11-24T17:03:31.445Z,82.70
2022-11-24T17:06:00.734Z,83.01
2022-11-24T17:08:31.247Z,82.96
2022-11-24T17:10:58.803Z,82.23
2022-11-24T17:13:25.726Z,81.79
2022-11-24T17:15:54.518Z,82.38
2022-11-24T17:18:25.653Z,82.35
2022-11-24T17:20:52.666Z,82.76
2022-11-24T17:23:20.832Z,82.57
2022-11-24T17:25:47.846Z,83.36
2022-11-24T17:28:14.665Z,83.88
2022-11-24T17:30:41.568Z,84.22
2022-11-24T17:33:08.929Z,83.95
2022-11-24T17:35:36.423Z,83.67
2022-11-24T17:38:04.118Z,83.59
2022-11-24T17:40:32.442Z,83.81
2022-11-24T17:43:00.165Z,83.28
2022-11-24T17:45:29.333Z,83.41
2022-11-24T17:47:58.191Z,82.50
2022-11-24T17:50:26.373Z,82.41
2022-11-24T17:52:54.186Z,83.33
2022-11-24T17:55:21.363Z,82.97
2022-11-24T17:57:49.583Z,84.08
2022-11-24T18:00:17.758Z,83.43
2022-11-24T18:02:44.829Z,83.34
2022-11-24T18:05:11.727Z,83.61
2022-11-24T18:07:38.611Z,84.10
2022-11-24T18:10:07.268Z,83.39
2022-11-24T18:12:34.570Z,84.37
2022-11-24T18:15:02.850Z,83.95
2022-11-24T18:17:29.697Z,83.76
2022-11-24T18:19:56.863Z,83.88
2022-11-24T18:22:50.179Z,84.99
2022-11-24T18:25:10.625Z,83.33
2022-11-24T18:27:37.596Z,83.72
2022-11-24T18:30:07.866Z,83.42
2022-11-24T18:32:34.649Z,83.70
2022-11-24T18:35:01.926Z,83.74
2022-11-24T18:37:29.620Z,84.57
2022-11-24T18:39:56.471Z,85.08
2022-11-24T18:42:23.314Z,84.49
2022-11-24T18:44:53.918Z,84.95
2022-11-24T18:47:22.868Z,85.27
2022-11-24T18:49:49.708Z,84.49
2022-11-24T18:52:16.820Z,84.48
2022-11-24T18:54:43.603Z,84.05
2022-11-24T18:57:10.772Z,84.08
2022-11-24T18:59:37.637Z,83.53
2022-11-24T19:02:04.512Z,83.90
2022-11-24T19:04:33.672Z,82.58
2022-11-24T19:07:00.767Z,83.72
2022-11-24T19:09:27.551Z,83.81
2022-11-24T19:11:54.711Z,83.03
2022-11-24T19:14:21.659Z,83.04
2022-11-24T19:16:49.079Z,83.32
2022-11-24T19:19:16.024Z,84.09
2022-11-24T19:21:44.412Z,84.24
2022-11-24T19:24:12.476Z,84.29
2022-11-24T19:26:39.928Z,84.52
2022-11-24T19:29:08.448Z,84.40
2022-11-24T19:31:36.658Z,84.26
2022-11-24T19:34:04.212Z,82.47
2022-11-24T19:36:31.570Z,82.83
2022-11-24T19:39:00.022Z,83.36
2022-11-24T19:41:30.489Z,82.64
2022-11-24T19:43:58.244Z,82.85
2022-11-24T19:46:27.773Z,82.55
2022-11-24T19:48:56.379Z,82.78
2022-11-24T19:51:26.437Z,83.88
2022-11-24T19:53:54.333Z,84.15
2022-11-24T19:56:25.585Z,83.05
2022-11-24T19:58:54.553Z,84.28
2022-11-24T20:01:23.964Z,83.19
2022-11-24T20:03:56.648Z,82.25
2022-11-24T20:06:23.595Z,82.80
2022-11-24T20:08:50.465Z,83.24
2022-11-24T20:11:20.748Z,83.45
2022-11-24T20:13:49.344Z,83.22
2022-11-24T20:16:18.064Z,82.24
2022-11-24T20:18:47.606Z,82.36
2022-11-24T20:21:17.667Z,81.85
2022-11-24T20:23:50.879Z,81.51
2022-11-24T20:26:21.241Z,82.68
2022-11-24T20:28:50.710Z,81.83
2022-11-24T20:31:21.258Z,82.49
2022-11-24T20:33:48.476Z,82.78
2022-11-24T20:36:18.575Z,81.39
2022-11-24T20:38:47.820Z,81.00
2022-11-24T20:41:17.905Z,81.38
2022-11-24T20:43:45.849Z,80.68
2022-11-24T20:46:17.566Z,81.39
2022-11-24T20:48:45.411Z,80.72
2022-11-24T20:51:14.943Z,80.95
2022-11-24T20:53:42.733Z,82.01
2022-11-24T20:56:13.236Z,81.13
2022-11-24T20:58:41.409Z,81.01
2022-11-24T21:01:12.045Z,80.52
2022-11-24T21:03:43.470Z,81.62
2022-11-24T21:06:11.518Z,82.61
2022-11-24T21:08:41.708Z,82.64
2022-11-24T21:11:12.125Z,81.54
2022-11-24T21:13:41.839Z,81.92
2022-11-24T21:16:15.763Z,82.03
2022-11-24T21:18:45.870Z,82.29
2022-11-24T21:21:14.286Z,81.77
2022-11-24T21:23:41.466Z,82.11
2022-11-24T21:26:13.312Z,82.59
2022-11-24T21:28:43.618Z,82.59
2022-11-24T21:31:14.152Z,82.75
2022-11-24T21:33:42.389Z,82.33
2022-11-24T21:36:11.320Z,83.16
2022-11-24T21:38:38.778Z,83.09
2022-11-24T21:41:08.035Z,83.21
2022-11-24T21:43:35.649Z,83.03
2022-11-24T21:46:05.427Z,83.59
2022-11-24T21:48:34.507Z,83.37
2022-11-24T21:51:04.506Z,83.88
2022-11-24T21:53:35.926Z,84.06
2022-11-24T21:56:06.960Z,84.07
2022-11-24T21:58:34.069Z,85.20
2022-11-24T22:01:02.494Z,85.71
2022-11-24T22:03:29.764Z,85.11
2022-11-24T22:05:58.839Z,85.47
2022-11-24T22:08:28.684Z,84.61
2022-11-24T22:11:03.407Z,84.99
2022-11-24T22:13:30.809Z,84.88
2022-11-24T22:16:04.883Z,84.67
2022-11-24T22:18:34.897Z,84.48
2022-11-24T22:21:02.542Z,85.02
2022-11-24T22:23:29.989Z,84.71
2022-11-24T22:26:03.625Z,84.50
2022-11-24T22:28:32.205Z,84.78
2022-11-24T22:31:03.764Z,84.24
2022-11-24T22:33:30.776Z,85.60
2022-11-24T22:35:58.445Z,86.21
2022-11-24T22:38:27.246Z,85.42
2022-11-24T22:40:54.269Z,85.49
2022-11-24T22:43:23.216Z,85.28
2022-11-24T22:45:50.165Z,85.11
2022-11-24T22:48:17.382Z,85.44
2022-11-24T22:50:44.299Z,85.03
2022-11-24T22:53:11.475Z,85.56
2022-11-24T22:55:38.275Z,85.37
2022-11-24T22:58:05.084Z,86.46
2022-11-24T23:00:33.265Z,86.32
2022-11-24T23:03:00.339Z,85.97
2022-11-24T23:05:27.161Z,84.63
2022-11-24T23:07:54.106Z,84.67
2022-11-24T23:10:21.181Z,83.97
2022-11-24T23:12:47.990Z,85.10
2022-11-24T23:15:15.217Z,85.10
2022-11-24T23:17:43.401Z,84.56
2022-11-24T23:20:13.413Z,84.07
2022-11-24T23:22:40.304Z,83.98
2022-11-24T23:25:08.283Z,84.24
2022-11-24T23:27:35.125Z,84.21
2022-11-24T23:30:02.061Z,84.22
2022-11-24T23:32:29.036Z,83.89
2022-11-24T23:34:57.294Z,84.28
2022-11-24T23:37:39.261Z,84.38
2022-11-24T23:40:12.250Z,84.76
2022-11-24T23:42:39.077Z,84.71
2022-11-24T23:45:07.716Z,85.06
2022-11-24T23:47:34.553Z,84.74
2022-11-24T23:50:03.557Z,84.66
2022-11-24T23:52:30.561Z,84.60
2022-11-24T23:54:57.353Z,84.49
2022-11-24T23:57:24.166Z,84.63
2022-11-24T23:59:50.993Z,84.93
